createdAt,value
2022-09-23T00:00:06.689Z,3.10
2022-09-23T00:02:35.192Z,3.43
2022-09-23T00:05:03.980Z,2.97
2022-09-23T00:07:32.373Z,3.10
2022-09-23T00:10:02.197Z,2.90
2022-09-23T00:12:30.585Z,3.03
2022-09-23T00:14:59.162Z,2.70
2022-09-23T00:17:27.974Z,3.40
2022-09-23T00:19:56.464Z,2.77
2022-09-23T00:22:25.006Z,2.90
2022-09-23T00:24:53.641Z,3.23
2022-09-23T00:27:23.421Z,3.13
2022-09-23T00:29:51.869Z,3.40
2022-09-23T00:32:20.244Z,3.00
2022-09-23T00:34:49.960Z,2.90
2022-09-23T00:37:18.539Z,3.00
2022-09-23T00:39:47.360Z,2.93
2022-09-23T00:42:18.661Z,2.83
2022-09-23T00:44:50.587Z,3.30
2022-09-23T00:47:23.146Z,2.73
2022-09-23T00:49:57.044Z,2.90
2022-09-23T00:52:25.615Z,2.67
2022-09-23T00:54:55.897Z,3.57
2022-09-23T00:57:25.151Z,3.23
2022-09-23T00:59:55.045Z,3.63
2022-09-23T01:02:23.833Z,4.57
2022-09-23T01:04:52.604Z,3.43
2022-09-23T01:07:21.853Z,3.40
2022-09-23T01:09:50.690Z,4.23
2022-09-23T01:12:30.433Z,4.30
2022-09-23T01:15:09.249Z,4.53
2022-09-23T01:17:41.416Z,3.60
2022-09-23T01:20:32.963Z,4.17
2022-09-23T01:23:14.985Z,3.47
2022-09-23T01:25:56.315Z,4.40
2022-09-23T01:28:45.407Z,4.13
2022-09-23T01:31:18.711Z,4.07
2022-09-23T01:33:51.230Z,4.27
2022-09-23T01:36:23.713Z,4.03
2022-09-23T01:38:58.387Z,4.93
2022-09-23T01:41:35.148Z,5.00
2022-09-23T01:44:07.060Z,4.77
2022-09-23T01:46:41.164Z,4.70
2022-09-23T01:49:12.903Z,4.33
2022-09-23T01:51:43.887Z,4.23
2022-09-23T01:54:15.899Z,4.83
2022-09-23T01:56:48.468Z,4.10
2022-09-23T01:59:21.683Z,4.30
2022-09-23T02:01:56.624Z,5.50
2022-09-23T02:04:30.995Z,4.40
2022-09-23T02:07:02.139Z,4.70
2022-09-23T02:09:37.241Z,5.60
2022-09-23T02:12:09.642Z,5.13
2022-09-23T02:14:41.332Z,5.57
2022-09-23T02:17:13.114Z,5.83
2022-09-23T02:19:44.755Z,5.30
2022-09-23T02:22:16.987Z,5.43
2022-09-23T02:24:45.888Z,4.93
2022-09-23T02:27:21.536Z,3.80
2022-09-23T02:29:55.191Z,4.27
2022-09-23T02:32:32.067Z,3.77
2022-09-23T02:35:04.262Z,4.00
2022-09-23T02:37:40.535Z,3.87
2022-09-23T02:40:14.850Z,3.90
2022-09-23T02:42:50.014Z,3.60
2022-09-23T02:45:18.619Z,3.50
2022-09-23T02:47:52.512Z,4.13
2022-09-23T02:50:22.614Z,2.93
2022-09-23T02:52:51.304Z,3.73
2022-09-23T02:55:20.291Z,3.87
2022-09-23T02:57:48.748Z,3.90
2022-09-23T03:00:17.856Z,2.97
2022-09-23T03:03:01.270Z,3.27
2022-09-23T03:05:31.632Z,3.50
2022-09-23T03:08:13.610Z,2.90
2022-09-23T03:10:53.058Z,3.27
2022-09-23T03:13:31.073Z,4.40
2022-09-23T03:16:06.371Z,4.83
2022-09-23T03:18:39.591Z,5.33
2022-09-23T03:21:10.076Z,3.93
2022-09-23T03:23:41.054Z,4.60
2022-09-23T03:26:12.913Z,4.03
2022-09-23T03:28:43.833Z,4.37
2022-09-23T03:31:13.103Z,5.83
2022-09-23T03:33:46.777Z,4.20
2022-09-23T03:36:35.641Z,4.20
2022-09-23T03:39:07.043Z,3.87
2022-09-23T03:41:39.727Z,3.90
2022-09-23T03:44:09.245Z,5.10
2022-09-23T03:46:37.746Z,5.23
2022-09-23T03:49:11.438Z,4.57
2022-09-23T03:51:44.416Z,4.37
2022-09-23T03:54:13.242Z,4.50
2022-09-23T03:56:41.701Z,3.47
2022-09-23T03:59:10.106Z,4.20
2022-09-23T04:01:38.637Z,3.53
2022-09-23T04:04:07.642Z,3.80
2022-09-23T04:06:37.481Z,2.80
2022-09-23T04:09:05.848Z,3.30
2022-09-23T04:11:34.432Z,3.30
2022-09-23T04:14:03.149Z,3.93
2022-09-23T04:16:31.680Z,3.33
2022-09-23T04:19:00.078Z,3.10
2022-09-23T04:21:31.359Z,3.60
2022-09-23T04:24:01.854Z,2.90
2022-09-23T04:26:30.641Z,3.50
2022-09-23T04:28:59.369Z,4.50
2022-09-23T04:31:28.783Z,3.53
2022-09-23T04:33:58.205Z,3.90
2022-09-23T04:36:27.206Z,4.43
2022-09-23T04:38:56.408Z,38.40
2022-09-23T04:41:26.290Z,10.93
2022-09-23T04:43:54.746Z,4.37
2022-09-23T04:46:23.239Z,4.00
2022-09-23T04:48:51.706Z,4.43
2022-09-23T04:51:21.684Z,4.53
2022-09-23T04:53:51.401Z,4.57
2022-09-23T04:56:22.287Z,3.63
2022-09-23T04:58:52.347Z,4.77
2022-09-23T05:01:25.229Z,4.20
2022-09-23T05:03:55.366Z,4.50
2022-09-23T05:06:23.786Z,4.33
2022-09-23T05:08:53.608Z,3.80
2022-09-23T05:11:22.604Z,3.43
2022-09-23T05:13:53.929Z,3.83
2022-09-23T05:16:24.046Z,3.00
2022-09-23T05:18:53.133Z,4.70
2022-09-23T05:21:23.205Z,4.63
2022-09-23T05:23:54.439Z,4.80
2022-09-23T05:26:24.195Z,4.50
2022-09-23T05:28:54.702Z,4.67
2022-09-23T05:31:24.497Z,4.40
2022-09-23T05:33:54.332Z,4.60
2022-09-23T05:36:23.146Z,4.43
2022-09-23T05:38:51.969Z,4.63
2022-09-23T05:41:23.006Z,4.00
2022-09-23T05:43:51.935Z,3.67
2022-09-23T05:46:23.954Z,4.27
2022-09-23T05:48:52.737Z,3.90
2022-09-23T05:51:30.657Z,4.47
2022-09-23T05:54:00.476Z,4.70
2022-09-23T05:56:29.410Z,3.30
2022-09-23T05:58:59.431Z,3.80
2022-09-23T06:01:32.243Z,5.03
2022-09-23T06:04:02.089Z,4.73
2022-09-23T06:06:31.756Z,3.93
2022-09-23T06:09:00.876Z,4.57
2022-09-23T06:11:31.391Z,4.40
2022-09-23T06:14:02.261Z,4.43
2022-09-23T06:16:34.171Z,4.60
2022-09-23T06:19:06.326Z,4.50
2022-09-23T06:21:36.472Z,4.50
2022-09-23T06:24:06.393Z,4.60
2022-09-23T06:26:35.530Z,4.30
2022-09-23T06:29:06.339Z,4.47
2022-09-23T06:31:36.179Z,5.10
2022-09-23T06:34:11.502Z,3.80
2022-09-23T06:36:46.613Z,4.63
2022-09-23T06:39:15.797Z,4.50
2022-09-23T06:41:45.171Z,4.73
2022-09-23T06:44:14.202Z,4.23
2022-09-23T06:46:44.212Z,4.53
2022-09-23T06:49:13.582Z,3.83
2022-09-23T06:51:42.686Z,5.30
2022-09-23T06:54:11.447Z,4.63
2022-09-23T06:56:40.282Z,10.83
2022-09-23T06:59:10.787Z,18.50
2022-09-23T07:01:39.439Z,6.50
2022-09-23T07:04:10.175Z,8.23
2022-09-23T07:06:38.693Z,7.40
2022-09-23T07:09:09.700Z,4.90
2022-09-23T07:11:39.413Z,6.00
2022-09-23T07:14:07.992Z,5.47
2022-09-23T07:16:36.558Z,6.93
2022-09-23T07:19:05.116Z,6.47
2022-09-23T07:21:35.170Z,6.07
2022-09-23T07:24:03.804Z,6.17
2022-09-23T07:26:34.076Z,6.13
2022-09-23T07:29:05.078Z,5.77
2022-09-23T07:31:39.314Z,5.40
2022-09-23T07:34:09.902Z,6.27
2022-09-23T07:36:41.453Z,5.50
2022-09-23T07:39:11.270Z,5.63
2022-09-23T07:41:41.572Z,5.47
2022-09-23T07:44:11.731Z,4.90
2022-09-23T07:46:40.436Z,5.67
2022-09-23T07:49:10.467Z,6.00
2022-09-23T07:51:42.848Z,5.40
2022-09-23T07:54:13.276Z,5.03
2022-09-23T07:56:42.318Z,4.37
2022-09-23T07:59:15.402Z,4.80
2022-09-23T08:01:46.295Z,5.43
2022-09-23T08:04:17.775Z,4.80
2022-09-23T08:06:49.246Z,6.07
2022-09-23T08:09:19.317Z,5.90
2022-09-23T08:11:48.508Z,5.77
2022-09-23T08:14:17.972Z,5.00
2022-09-23T08:16:47.081Z,4.67
2022-09-23T08:19:16.139Z,5.57
2022-09-23T08:21:46.675Z,5.30
2022-09-23T08:24:18.725Z,6.13
2022-09-23T08:26:48.231Z,4.53
2022-09-23T08:29:18.869Z,5.07
2022-09-23T08:31:47.822Z,4.50
2022-09-23T08:34:16.990Z,4.50
2022-09-23T08:36:45.741Z,3.90
2022-09-23T08:39:16.572Z,5.13
2022-09-23T08:41:49.329Z,5.07
2022-09-23T08:44:20.371Z,4.90
2022-09-23T08:46:51.035Z,4.97
2022-09-23T08:49:29.032Z,3.93
2022-09-23T08:51:58.217Z,4.30
2022-09-23T08:54:31.881Z,3.90
2022-09-23T08:57:01.643Z,4.77
2022-09-23T08:59:36.160Z,4.43
2022-09-23T09:02:10.432Z,4.40
2022-09-23T09:04:42.315Z,4.07
2022-09-23T09:10:11.867Z,4.50
2022-09-23T09:12:43.560Z,4.57
2022-09-23T09:15:14.605Z,4.30
2022-09-23T09:17:49.992Z,6.57
2022-09-23T09:20:23.701Z,5.23
2022-09-23T09:22:57.864Z,5.10
2022-09-23T09:25:40.268Z,5.13
2022-09-23T09:28:15.717Z,4.73
2022-09-23T09:30:48.504Z,4.57
2022-09-23T09:33:18.542Z,4.93
2022-09-23T09:35:58.873Z,4.70
2022-09-23T09:38:27.911Z,4.67
2022-09-23T09:41:03.217Z,5.00
2022-09-23T09:43:32.424Z,5.30
2022-09-23T09:46:08.391Z,5.60
2022-09-23T09:48:39.934Z,4.93
2022-09-23T09:51:19.698Z,4.60
2022-09-23T09:53:48.907Z,4.27
2022-09-23T09:56:19.373Z,4.37
2022-09-23T09:58:50.971Z,3.80
2022-09-23T10:01:21.226Z,4.90
2022-09-23T10:03:53.037Z,5.00
2022-09-23T10:06:25.935Z,4.27
2022-09-23T10:09:17.082Z,4.60
2022-09-23T10:12:04.335Z,4.63
2022-09-23T10:14:33.015Z,4.63
2022-09-23T10:17:06.273Z,4.70
2022-09-23T10:19:37.164Z,4.90
2022-09-23T10:22:10.993Z,4.50
2022-09-23T10:24:42.306Z,5.47
2022-09-23T10:27:12.793Z,5.73
2022-09-23T10:29:49.605Z,4.30
2022-09-23T10:32:26.725Z,4.70
2022-09-23T10:34:58.053Z,4.00
2022-09-23T10:37:36.080Z,4.07
2022-09-23T10:40:32.942Z,3.60
2022-09-23T10:43:40.127Z,3.67
2022-09-23T10:46:29.534Z,3.70
2022-09-23T10:49:40.491Z,3.53
2022-09-23T10:52:22.258Z,3.30
2022-09-23T10:54:59.444Z,3.97
2022-09-23T10:57:41.142Z,3.53
2022-09-23T11:00:23.112Z,3.40
2022-09-23T11:03:14.980Z,3.30
2022-09-23T11:05:47.598Z,2.93
2022-09-23T11:08:29.771Z,2.90
2022-09-23T11:11:06.684Z,2.63
2022-09-23T11:14:03.926Z,2.93
2022-09-23T11:16:43.592Z,2.70
2022-09-23T11:19:26.253Z,2.90
2022-09-23T11:22:02.297Z,3.17
2022-09-23T11:24:50.139Z,2.97
2022-09-23T11:27:27.955Z,3.17
2022-09-23T11:30:14.099Z,2.90
2022-09-23T11:35:42.628Z,2.63
2022-09-23T11:38:13.490Z,3.10
2022-09-23T11:40:44.047Z,2.97
2022-09-23T11:43:21.712Z,3.10
2022-09-23T11:45:56.510Z,2.80
2022-09-23T11:48:31.783Z,2.67
2022-09-23T11:51:02.424Z,2.73
2022-09-23T11:53:37.929Z,2.70
2022-09-23T11:56:10.228Z,2.90
2022-09-23T11:58:44.964Z,3.20
2022-09-23T12:01:33.366Z,2.80
2022-09-23T12:04:18.944Z,3.40
2022-09-23T12:06:52.357Z,2.47
2022-09-23T12:09:40.900Z,3.10
2022-09-23T12:12:16.368Z,3.13
2022-09-23T12:14:53.818Z,2.90
2022-09-23T12:17:35.589Z,2.67
2022-09-23T12:20:21.717Z,2.90
2022-09-23T12:22:59.517Z,2.90
2022-09-23T12:25:36.585Z,2.60
2022-09-23T12:28:07.355Z,2.20
2022-09-23T12:30:36.985Z,2.50
2022-09-23T12:33:10.198Z,2.40
2022-09-23T12:35:42.999Z,3.10
2022-09-23T12:38:16.065Z,2.80
2022-09-23T12:40:44.799Z,2.60
2022-09-23T12:43:18.593Z,2.30
2022-09-23T12:45:48.183Z,2.23
2022-09-23T12:49:00.411Z,2.10
2022-09-23T12:51:31.166Z,2.13
2022-09-23T12:54:16.039Z,2.37
2022-09-23T12:57:11.001Z,2.20
2022-09-23T12:59:57.606Z,2.17
2022-09-23T13:02:29.846Z,2.10
2022-09-23T13:05:21.137Z,2.13
2022-09-23T13:07:51.467Z,2.07
2022-09-23T13:10:28.021Z,2.40
2022-09-23T13:12:56.876Z,2.37
2022-09-23T13:15:31.581Z,2.33
2022-09-23T13:18:24.121Z,2.20
2022-09-23T13:20:53.335Z,2.40
2022-09-23T13:23:25.647Z,2.17
2022-09-23T13:25:55.573Z,2.83
2022-09-23T13:28:29.948Z,2.70
2022-09-23T13:30:58.516Z,2.80
2022-09-23T13:33:35.271Z,2.50
2022-09-23T13:36:06.721Z,2.20
2022-09-23T13:38:36.547Z,2.17
2022-09-23T13:41:08.413Z,2.47
2022-09-23T13:43:41.428Z,2.10
2022-09-23T13:46:14.051Z,2.30
2022-09-23T13:48:45.330Z,2.17
2022-09-23T13:51:24.536Z,2.20
2022-09-23T13:53:56.142Z,2.40
2022-09-23T13:56:25.660Z,2.40
2022-09-23T13:58:55.836Z,2.13
2022-09-23T14:01:31.879Z,2.27
2022-09-23T14:04:00.911Z,2.10
2022-09-23T14:06:31.053Z,2.10
2022-09-23T14:09:02.529Z,2.00
2022-09-23T14:11:33.695Z,2.10
2022-09-23T14:14:07.604Z,2.50
2022-09-23T14:16:39.026Z,2.17
2022-09-23T14:19:07.994Z,2.40
2022-09-23T14:21:37.782Z,2.50
2022-09-23T14:24:21.222Z,2.77
2022-09-23T14:26:51.534Z,2.40
2022-09-23T14:29:21.948Z,2.40
2022-09-23T14:31:57.650Z,2.30
2022-09-23T14:34:48.142Z,2.40
2022-09-23T14:37:40.875Z,2.20
2022-09-23T14:40:14.897Z,2.00
2022-09-23T14:42:45.003Z,2.40
2022-09-23T14:45:17.393Z,2.10
2022-09-23T14:47:48.700Z,2.10
2022-09-23T14:50:40.696Z,2.10
2022-09-23T14:53:38.433Z,2.33
2022-09-23T14:56:20.444Z,2.10
2022-09-23T14:58:53.157Z,2.17
2022-09-23T15:01:27.679Z,2.20
2022-09-23T15:03:57.642Z,2.20
2022-09-23T15:06:26.672Z,2.30
2022-09-23T15:08:56.577Z,2.10
2022-09-23T15:11:26.499Z,2.17
2022-09-23T15:13:54.929Z,2.37
2022-09-23T15:16:26.887Z,2.40
2022-09-23T15:18:57.376Z,2.60
2022-09-23T15:21:26.695Z,2.77
2022-09-23T15:23:58.636Z,2.70
2022-09-23T15:26:49.562Z,2.23
2022-09-23T15:29:19.074Z,2.40
2022-09-23T15:31:47.777Z,2.90
2022-09-23T15:34:16.207Z,2.70
2022-09-23T15:36:44.729Z,2.53
2022-09-23T15:39:13.686Z,2.47
2022-09-23T15:41:43.962Z,2.43
2022-09-23T15:44:13.851Z,2.50
2022-09-23T15:46:45.888Z,2.67
2022-09-23T15:49:23.273Z,2.70
2022-09-23T15:51:52.035Z,2.83
2022-09-23T15:54:20.448Z,2.57
2022-09-23T15:56:50.266Z,2.90
2022-09-23T15:59:19.163Z,3.20
2022-09-23T16:01:47.593Z,2.80
2022-09-23T16:04:16.697Z,2.80
2022-09-23T16:06:48.572Z,3.07
2022-09-23T16:09:17.006Z,2.30
2022-09-23T16:11:47.112Z,2.93
2022-09-23T16:14:20.697Z,2.63
2022-09-23T16:16:49.118Z,2.67
2022-09-23T16:19:17.790Z,3.53
2022-09-23T16:21:46.222Z,2.70
2022-09-23T16:24:19.139Z,2.50
2022-09-23T16:26:48.657Z,2.20
2022-09-23T16:29:18.432Z,2.50
2022-09-23T16:31:46.891Z,2.60
2022-09-23T16:34:15.526Z,3.00
2022-09-23T16:36:44.607Z,2.93
2022-09-23T16:39:14.438Z,3.63
2022-09-23T16:41:43.490Z,4.40
2022-09-23T16:44:12.617Z,4.50
2022-09-23T16:46:43.257Z,5.30
2022-09-23T16:49:12.479Z,4.33
2022-09-23T16:51:41.298Z,4.30
2022-09-23T16:54:11.386Z,4.13
2022-09-23T16:56:44.322Z,4.80
2022-09-23T16:59:13.570Z,4.07
2022-09-23T17:02:01.489Z,4.97
2022-09-23T17:04:30.080Z,4.73
2022-09-23T17:06:59.173Z,5.20
2022-09-23T17:09:29.256Z,5.17
2022-09-23T17:12:04.288Z,5.27
2022-09-23T17:14:33.786Z,5.13
2022-09-23T17:17:03.734Z,4.83
2022-09-23T17:19:33.857Z,5.20
2022-09-23T17:22:02.301Z,5.70
2022-09-23T17:24:30.739Z,7.37
2022-09-23T17:26:59.195Z,7.47
2022-09-23T17:29:29.112Z,7.80
2022-09-23T17:31:58.057Z,7.67
2022-09-23T17:34:28.908Z,7.83
2022-09-23T17:36:57.348Z,7.70
2022-09-23T17:39:25.840Z,7.47
2022-09-23T17:41:56.083Z,8.07
2022-09-23T17:44:24.757Z,9.23
2022-09-23T17:46:53.414Z,10.17
2022-09-23T17:49:24.232Z,9.27
2022-09-23T17:51:54.136Z,10.73
2022-09-23T17:54:22.954Z,13.73
2022-09-23T17:56:51.436Z,14.23
2022-09-23T17:59:20.047Z,9.40
2022-09-23T18:01:48.523Z,18.50
2022-09-23T18:04:17.526Z,29.30
2022-09-23T18:06:47.261Z,11.33
2022-09-23T18:09:18.209Z,9.43
2022-09-23T18:11:49.344Z,25.83
2022-09-23T18:14:19.494Z,17.90
2022-09-23T18:16:49.567Z,10.90
2022-09-23T18:19:19.305Z,10.70
2022-09-23T18:21:50.382Z,9.53
2022-09-23T18:24:35.721Z,9.40
2022-09-23T18:27:06.402Z,9.23
2022-09-23T18:29:35.360Z,9.73
2022-09-23T18:32:04.218Z,9.07
2022-09-23T18:34:33.130Z,8.43
2022-09-23T18:37:01.594Z,6.93
2022-09-23T18:39:31.485Z,6.80
2022-09-23T18:42:02.611Z,8.03
2022-09-23T18:44:31.552Z,7.33
2022-09-23T18:47:00.064Z,7.80
2022-09-23T18:49:45.888Z,8.03
2022-09-23T18:52:15.885Z,7.30
2022-09-23T18:54:45.908Z,8.73
2022-09-23T18:57:14.998Z,8.43
2022-09-23T18:59:47.273Z,8.67
2022-09-23T19:02:16.959Z,8.30
2022-09-23T19:04:45.359Z,7.90
2022-09-23T19:07:14.113Z,7.50
2022-09-23T19:09:42.562Z,7.77
2022-09-23T19:12:12.365Z,10.80
2022-09-23T19:14:43.686Z,11.50
2022-09-23T19:17:12.149Z,9.20
2022-09-23T19:19:40.970Z,9.13
2022-09-23T19:22:09.517Z,9.30
2022-09-23T19:24:38.084Z,8.97
2022-09-23T19:27:17.317Z,9.70
2022-09-23T19:29:47.432Z,9.47
2022-09-23T19:32:16.346Z,8.43
2022-09-23T19:34:46.493Z,9.50
2022-09-23T19:37:16.518Z,10.20
2022-09-23T19:39:45.831Z,9.53
2022-09-23T19:42:15.816Z,10.13
2022-09-23T19:44:44.299Z,9.57
2022-09-23T19:47:15.630Z,9.23
2022-09-23T19:49:44.265Z,9.47
2022-09-23T19:52:12.957Z,8.67
2022-09-23T19:54:42.600Z,9.03
2022-09-23T19:57:14.641Z,7.63
2022-09-23T19:59:44.988Z,6.63
2022-09-23T20:02:14.197Z,8.00
2022-09-23T20:04:42.614Z,8.27
2022-09-23T20:07:11.469Z,10.13
2022-09-23T20:09:40.024Z,8.90
2022-09-23T20:12:08.556Z,9.07
2022-09-23T20:14:36.984Z,10.47
2022-09-23T20:17:07.688Z,9.57
2022-09-23T20:19:36.229Z,24.43
2022-09-23T20:22:22.466Z,25.97
2022-09-23T20:24:51.002Z,34.83
2022-09-23T20:27:18.843Z,27.47
2022-09-23T20:29:48.415Z,31.23
2022-09-23T20:32:18.653Z,20.57
2022-09-23T20:34:48.774Z,23.90
2022-09-23T20:37:18.074Z,15.53
2022-09-23T20:39:48.502Z,17.10
2022-09-23T20:42:17.752Z,10.80
2022-09-23T20:44:46.434Z,8.77
2022-09-23T20:47:16.935Z,8.97
2022-09-23T20:49:48.895Z,9.13
2022-09-23T20:52:22.402Z,10.00
2022-09-23T20:54:53.052Z,8.93
2022-09-23T20:57:21.517Z,9.13
2022-09-23T20:59:49.978Z,8.47
2022-09-23T21:02:18.612Z,9.87
2022-09-23T21:04:48.537Z,8.40
2022-09-23T21:07:17.084Z,9.13
2022-09-23T21:09:45.526Z,9.27
2022-09-23T21:12:13.908Z,9.90
2022-09-23T21:14:42.305Z,8.87
2022-09-23T21:17:10.725Z,8.60
2022-09-23T21:19:39.170Z,6.60
2022-09-23T21:22:09.912Z,7.10
2022-09-23T21:25:16.141Z,7.20
2022-09-23T21:27:27.115Z,7.07
2022-09-23T21:29:55.530Z,7.80
2022-09-23T21:32:24.574Z,8.10
2022-09-23T21:34:54.059Z,8.27
2022-09-23T21:37:23.888Z,8.00
2022-09-23T21:40:06.397Z,7.87
2022-09-23T21:42:36.057Z,7.73
2022-09-23T21:45:06.416Z,7.20
2022-09-23T21:47:35.255Z,9.03
2022-09-23T21:50:04.320Z,6.60
2022-09-23T21:52:34.200Z,8.07
2022-09-23T21:55:02.679Z,7.47
2022-09-23T21:57:31.612Z,7.20
2022-09-23T22:00:00.069Z,6.23
2022-09-23T22:02:28.571Z,6.07
2022-09-23T22:04:57.233Z,6.17
2022-09-23T22:07:25.704Z,6.07
2022-09-23T22:09:55.575Z,6.30
2022-09-23T22:12:24.139Z,6.60
2022-09-23T22:14:52.522Z,5.80
2022-09-23T22:17:21.303Z,6.53
2022-09-23T22:19:50.913Z,6.07
2022-09-23T22:22:19.546Z,6.77
2022-09-23T22:24:48.496Z,7.67
2022-09-23T22:27:20.409Z,7.17
2022-09-23T22:30:06.582Z,6.33
2022-09-23T22:32:46.221Z,6.80
2022-09-23T22:35:16.601Z,6.77
2022-09-23T22:37:45.493Z,7.50
2022-09-23T22:40:15.328Z,5.73
2022-09-23T22:42:45.778Z,6.90
2022-09-23T22:45:14.459Z,6.33
2022-09-23T22:47:45.066Z,7.43
2022-09-23T22:50:14.925Z,6.73
2022-09-23T22:52:43.669Z,7.13
2022-09-23T22:55:12.641Z,7.23
2022-09-23T22:57:41.193Z,6.00
2022-09-23T23:00:13.116Z,5.93
2022-09-23T23:02:42.316Z,6.50
2022-09-23T23:05:11.540Z,6.30
2022-09-23T23:07:40.494Z,6.30
2022-09-23T23:10:10.421Z,6.83
2022-09-23T23:12:39.078Z,6.10
2022-09-23T23:15:09.341Z,5.67
2022-09-23T23:17:40.468Z,5.03
2022-09-23T23:20:09.621Z,5.77
2022-09-23T23:22:38.070Z,5.47
2022-09-23T23:25:07.544Z,5.63
2022-09-23T23:27:36.469Z,6.07
2022-09-23T23:30:05.693Z,6.23
2022-09-23T23:32:34.218Z,6.20
2022-09-23T23:35:04.333Z,6.00
2022-09-23T23:37:32.758Z,5.77
2022-09-23T23:40:01.253Z,5.57
2022-09-23T23:42:31.351Z,5.87
2022-09-23T23:44:59.928Z,5.17
2022-09-23T23:47:28.352Z,4.93
2022-09-23T23:49:57.097Z,5.57
2022-09-23T23:52:26.992Z,5.13
2022-09-23T23:54:55.486Z,5.80
2022-09-23T23:57:23.917Z,5.73
2022-09-23T23:59:52.339Z,5.07
